sensor_id;sensor_type;location;lat;lon;timestamp;noise_LAeq;noise_LA_min;noise_LA_max;noise_LA01;noise_LA95
72858;Laerm;62742;52.136;4.500;2023-07-22T00:00:01;56.04;52.24;59.95;;
72858;Laerm;62742;52.136;4.500;2023-07-22T00:02:27;56.00;52.59;58.72;;
72858;Laerm;62742;52.136;4.500;2023-07-22T00:04:53;55.99;52.46;59.55;;
72858;Laerm;62742;52.136;4.500;2023-07-22T00:07:20;56.07;51.34;59.52;;
72858;Laerm;62742;52.136;4.500;2023-07-22T00:09:46;56.06;52.17;60.17;;
72858;Laerm;62742;52.136;4.500;2023-07-22T00:12:15;55.83;51.90;59.06;;
72858;Laerm;62742;52.136;4.500;2023-07-22T00:14:41;56.27;52.90;58.89;;
72858;Laerm;62742;52.136;4.500;2023-07-22T00:17:08;56.45;51.71;60.24;;
72858;Laerm;62742;52.136;4.500;2023-07-22T00:19:35;56.62;52.90;59.87;;
72858;Laerm;62742;52.136;4.500;2023-07-22T00:22:01;56.56;51.86;59.63;;
72858;Laerm;62742;52.136;4.500;2023-07-22T00:24:28;56.25;52.62;60.05;;
72858;Laerm;62742;52.136;4.500;2023-07-22T00:26:55;56.40;52.58;59.70;;
72858;Laerm;62742;52.136;4.500;2023-07-22T00:29:21;56.80;51.86;60.00;;
72858;Laerm;62742;52.136;4.500;2023-07-22T00:31:48;56.68;52.81;59.93;;
72858;Laerm;62742;52.136;4.500;2023-07-22T00:34:15;57.09;53.11;60.84;;
72858;Laerm;62742;52.136;4.500;2023-07-22T00:36:42;57.14;52.76;60.24;;
72858;Laerm;62742;52.136;4.500;2023-07-22T00:39:10;57.24;53.15;60.58;;
72858;Laerm;62742;52.136;4.500;2023-07-22T00:41:38;56.92;53.30;60.31;;
72858;Laerm;62742;52.136;4.500;2023-07-22T00:44:04;56.77;52.41;60.25;;
72858;Laerm;62742;52.136;4.500;2023-07-22T00:46:30;56.83;51.29;60.00;;
72858;Laerm;62742;52.136;4.500;2023-07-22T00:48:56;56.67;52.61;59.58;;
72858;Laerm;62742;52.136;4.500;2023-07-22T00:51:23;56.53;52.75;60.38;;
72858;Laerm;62742;52.136;4.500;2023-07-22T00:53:50;56.47;52.19;60.19;;
72858;Laerm;62742;52.136;4.500;2023-07-22T00:56:20;56.74;52.36;59.87;;
72858;Laerm;62742;52.136;4.500;2023-07-22T00:58:46;56.92;52.63;60.47;;
72858;Laerm;62742;52.136;4.500;2023-07-22T01:01:12;56.72;52.72;59.83;;
72858;Laerm;62742;52.136;4.500;2023-07-22T01:03:39;56.69;52.82;59.68;;
72858;Laerm;62742;52.136;4.500;2023-07-22T01:06:05;56.28;52.26;59.61;;
72858;Laerm;62742;52.136;4.500;2023-07-22T01:08:32;56.60;51.78;59.79;;
72858;Laerm;62742;52.136;4.500;2023-07-22T01:10:59;54.42;50.19;58.35;;
72858;Laerm;62742;52.136;4.500;2023-07-22T01:13:25;54.00;49.99;57.28;;
72858;Laerm;62742;52.136;4.500;2023-07-22T01:15:52;54.12;49.41;57.73;;
72858;Laerm;62742;52.136;4.500;2023-07-22T01:18:19;53.58;50.12;57.26;;
72858;Laerm;62742;52.136;4.500;2023-07-22T01:20:46;53.76;50.32;57.09;;
72858;Laerm;62742;52.136;4.500;2023-07-22T01:23:13;54.09;49.98;57.34;;
72858;Laerm;62742;52.136;4.500;2023-07-22T01:25:39;54.23;50.78;57.36;;
72858;Laerm;62742;52.136;4.500;2023-07-22T01:28:10;54.36;50.85;58.02;;
72858;Laerm;62742;52.136;4.500;2023-07-22T01:30:37;54.47;50.21;58.31;;
72858;Laerm;62742;52.136;4.500;2023-07-22T01:33:03;53.95;49.09;57.23;;
72858;Laerm;62742;52.136;4.500;2023-07-22T01:35:30;54.20;49.83;57.68;;
72858;Laerm;62742;52.136;4.500;2023-07-22T01:37:56;55.22;50.80;58.35;;
72858;Laerm;62742;52.136;4.500;2023-07-22T01:40:25;55.25;50.58;58.92;;
72858;Laerm;62742;52.136;4.500;2023-07-22T01:42:51;54.80;50.93;58.02;;
72858;Laerm;62742;52.136;4.500;2023-07-22T01:45:18;55.60;51.21;59.06;;
72858;Laerm;62742;52.136;4.500;2023-07-22T01:47:44;54.98;50.75;58.34;;
72858;Laerm;62742;52.136;4.500;2023-07-22T01:50:11;54.65;50.50;57.89;;
72858;Laerm;62742;52.136;4.500;2023-07-22T01:52:37;54.76;51.05;58.16;;
72858;Laerm;62742;52.136;4.500;2023-07-22T01:55:04;54.98;50.53;59.68;;
72858;Laerm;62742;52.136;4.500;2023-07-22T01:57:32;54.98;50.96;58.39;;
72858;Laerm;62742;52.136;4.500;2023-07-22T02:00:00;54.86;51.16;58.33;;
72858;Laerm;62742;52.136;4.500;2023-07-22T02:02:26;54.26;50.16;57.59;;
72858;Laerm;62742;52.136;4.500;2023-07-22T02:04:53;54.38;50.19;57.62;;
72858;Laerm;62742;52.136;4.500;2023-07-22T02:07:19;53.94;49.59;57.20;;
72858;Laerm;62742;52.136;4.500;2023-07-22T02:09:46;54.79;49.72;58.54;;
72858;Laerm;62742;52.136;4.500;2023-07-22T02:12:12;55.32;50.62;58.74;;
72858;Laerm;62742;52.136;4.500;2023-07-22T02:14:38;55.20;51.34;59.04;;
72858;Laerm;62742;52.136;4.500;2023-07-22T02:17:05;54.24;50.33;58.07;;
72858;Laerm;62742;52.136;4.500;2023-07-22T02:19:31;54.04;50.17;58.04;;
72858;Laerm;62742;52.136;4.500;2023-07-22T02:21:58;54.31;50.85;57.62;;
72858;Laerm;62742;52.136;4.500;2023-07-22T02:24:24;54.10;50.82;57.24;;
72858;Laerm;62742;52.136;4.500;2023-07-22T02:26:50;54.50;50.78;58.20;;
72858;Laerm;62742;52.136;4.500;2023-07-22T02:29:17;54.63;49.97;57.84;;
72858;Laerm;62742;52.136;4.500;2023-07-22T02:31:46;54.39;50.07;57.54;;
72858;Laerm;62742;52.136;4.500;2023-07-22T02:34:16;54.54;50.93;58.33;;
72858;Laerm;62742;52.136;4.500;2023-07-22T02:36:43;54.49;50.80;58.12;;
72858;Laerm;62742;52.136;4.500;2023-07-22T02:39:09;55.12;51.00;58.05;;
72858;Laerm;62742;52.136;4.500;2023-07-22T02:41:39;54.42;50.40;57.89;;
72858;Laerm;62742;52.136;4.500;2023-07-22T02:44:06;54.88;51.06;58.24;;
72858;Laerm;62742;52.136;4.500;2023-07-22T02:46:32;54.54;50.91;57.97;;
72858;Laerm;62742;52.136;4.500;2023-07-22T02:48:58;54.31;50.11;57.95;;
72858;Laerm;62742;52.136;4.500;2023-07-22T02:51:25;54.95;51.11;58.81;;
72858;Laerm;62742;52.136;4.500;2023-07-22T02:53:52;55.12;51.13;58.58;;
72858;Laerm;62742;52.136;4.500;2023-07-22T02:56:18;54.45;50.32;57.94;;
72858;Laerm;62742;52.136;4.500;2023-07-22T02:58:45;54.41;50.50;58.30;;
72858;Laerm;62742;52.136;4.500;2023-07-22T03:01:11;54.19;50.32;58.53;;
72858;Laerm;62742;52.136;4.500;2023-07-22T03:03:38;54.40;50.42;57.66;;
72858;Laerm;62742;52.136;4.500;2023-07-22T03:06:06;54.20;50.22;58.12;;
72858;Laerm;62742;52.136;4.500;2023-07-22T03:08:33;54.31;50.12;57.94;;
72858;Laerm;62742;52.136;4.500;2023-07-22T03:10:59;54.17;50.51;58.31;;
72858;Laerm;62742;52.136;4.500;2023-07-22T03:13:26;53.92;50.20;57.00;;
72858;Laerm;62742;52.136;4.500;2023-07-22T03:15:58;54.14;50.50;58.43;;
72858;Laerm;62742;52.136;4.500;2023-07-22T03:18:24;54.37;50.58;58.00;;
72858;Laerm;62742;52.136;4.500;2023-07-22T03:20:50;54.08;50.73;57.67;;
72858;Laerm;62742;52.136;4.500;2023-07-22T03:23:18;54.23;50.60;58.11;;
72858;Laerm;62742;52.136;4.500;2023-07-22T03:25:45;54.55;50.65;57.72;;
72858;Laerm;62742;52.136;4.500;2023-07-22T03:28:12;54.61;50.61;58.44;;
72858;Laerm;62742;52.136;4.500;2023-07-22T03:30:38;54.98;51.00;61.35;;
72858;Laerm;62742;52.136;4.500;2023-07-22T03:33:04;54.42;50.66;57.54;;
72858;Laerm;62742;52.136;4.500;2023-07-22T03:35:33;54.37;50.76;57.63;;
72858;Laerm;62742;52.136;4.500;2023-07-22T03:38:00;54.61;50.19;58.26;;
72858;Laerm;62742;52.136;4.500;2023-07-22T03:40:27;54.85;51.04;58.00;;
72858;Laerm;62742;52.136;4.500;2023-07-22T03:42:57;56.02;50.95;59.52;;
72858;Laerm;62742;52.136;4.500;2023-07-22T03:45:24;54.89;51.02;58.23;;
72858;Laerm;62742;52.136;4.500;2023-07-22T03:47:56;55.00;51.01;58.85;;
72858;Laerm;62742;52.136;4.500;2023-07-22T03:50:23;54.69;50.24;57.67;;
72858;Laerm;62742;52.136;4.500;2023-07-22T03:52:49;55.10;50.46;58.44;;
72858;Laerm;62742;52.136;4.500;2023-07-22T03:55:16;54.84;51.43;58.79;;
72858;Laerm;62742;52.136;4.500;2023-07-22T03:57:43;54.42;50.01;57.95;;
72858;Laerm;62742;52.136;4.500;2023-07-22T04:00:09;54.47;50.41;57.99;;
72858;Laerm;62742;52.136;4.500;2023-07-22T04:02:37;54.84;50.16;61.07;;
72858;Laerm;62742;52.136;4.500;2023-07-22T04:05:03;54.78;50.64;58.08;;
72858;Laerm;62742;52.136;4.500;2023-07-22T04:07:30;54.78;51.03;58.01;;
72858;Laerm;62742;52.136;4.500;2023-07-22T04:09:56;54.40;50.25;57.72;;
72858;Laerm;62742;52.136;4.500;2023-07-22T04:12:23;54.90;51.08;58.06;;
72858;Laerm;62742;52.136;4.500;2023-07-22T04:14:50;54.68;50.36;58.20;;
72858;Laerm;62742;52.136;4.500;2023-07-22T04:17:16;54.84;50.50;58.51;;
72858;Laerm;62742;52.136;4.500;2023-07-22T04:19:43;56.30;51.06;60.75;;
72858;Laerm;62742;52.136;4.500;2023-07-22T04:22:09;55.98;50.67;60.47;;
72858;Laerm;62742;52.136;4.500;2023-07-22T04:24:35;55.97;51.19;59.37;;
72858;Laerm;62742;52.136;4.500;2023-07-22T04:27:02;56.76;51.97;60.32;;
72858;Laerm;62742;52.136;4.500;2023-07-22T04:29:29;56.82;51.67;60.67;;
72858;Laerm;62742;52.136;4.500;2023-07-22T04:31:59;56.61;50.80;60.53;;
72858;Laerm;62742;52.136;4.500;2023-07-22T04:34:32;57.53;51.30;62.40;;
72858;Laerm;62742;52.136;4.500;2023-07-22T04:36:58;57.86;52.58;61.26;;
72858;Laerm;62742;52.136;4.500;2023-07-22T04:39:26;57.87;51.92;60.88;;
72858;Laerm;62742;52.136;4.500;2023-07-22T04:41:52;57.66;52.73;61.47;;
72858;Laerm;62742;52.136;4.500;2023-07-22T04:44:19;58.21;50.54;61.50;;
72858;Laerm;62742;52.136;4.500;2023-07-22T04:46:45;58.02;53.02;63.39;;
72858;Laerm;62742;52.136;4.500;2023-07-22T04:49:12;59.88;54.19;62.82;;
72858;Laerm;62742;52.136;4.500;2023-07-22T04:51:39;59.29;54.05;61.96;;
72858;Laerm;62742;52.136;4.500;2023-07-22T04:54:06;58.45;53.72;61.79;;
72858;Laerm;62742;52.136;4.500;2023-07-22T04:56:32;57.49;52.11;61.18;;
72858;Laerm;62742;52.136;4.500;2023-07-22T04:58:59;59.05;53.86;63.80;;
72858;Laerm;62742;52.136;4.500;2023-07-22T05:01:26;59.76;55.07;62.34;;
72858;Laerm;62742;52.136;4.500;2023-07-22T05:03:52;60.79;57.69;63.47;;
72858;Laerm;62742;52.136;4.500;2023-07-22T05:06:21;60.93;57.59;63.06;;
72858;Laerm;62742;52.136;4.500;2023-07-22T05:08:48;60.39;54.26;63.25;;
72858;Laerm;62742;52.136;4.500;2023-07-22T05:11:14;60.79;56.96;62.82;;
72858;Laerm;62742;52.136;4.500;2023-07-22T05:13:41;61.33;58.59;63.08;;
72858;Laerm;62742;52.136;4.500;2023-07-22T05:16:07;61.78;59.46;63.32;;
72858;Laerm;62742;52.136;4.500;2023-07-22T05:18:33;61.49;54.89;63.30;;
72858;Laerm;62742;52.136;4.500;2023-07-22T05:21:00;60.98;53.03;63.03;;
72858;Laerm;62742;52.136;4.500;2023-07-22T05:23:26;61.32;57.68;63.29;;
72858;Laerm;62742;52.136;4.500;2023-07-22T05:25:54;61.78;59.00;63.36;;
72858;Laerm;62742;52.136;4.500;2023-07-22T05:28:20;61.55;58.95;63.02;;
72858;Laerm;62742;52.136;4.500;2023-07-22T05:30:47;61.38;56.02;62.89;;
72858;Laerm;62742;52.136;4.500;2023-07-22T05:33:14;61.57;58.92;63.06;;
72858;Laerm;62742;52.136;4.500;2023-07-22T05:35:40;61.40;58.65;62.92;;
72858;Laerm;62742;52.136;4.500;2023-07-22T05:38:07;61.41;58.28;63.15;;
72858;Laerm;62742;52.136;4.500;2023-07-22T05:40:33;60.62;53.79;62.64;;
72858;Laerm;62742;52.136;4.500;2023-07-22T05:43:00;61.14;53.10;62.84;;
72858;Laerm;62742;52.136;4.500;2023-07-22T05:45:27;60.56;57.02;62.65;;
72858;Laerm;62742;52.136;4.500;2023-07-22T05:47:53;60.97;54.81;62.92;;
72858;Laerm;62742;52.136;4.500;2023-07-22T05:50:20;61.76;54.93;62.96;;
72858;Laerm;62742;52.136;4.500;2023-07-22T05:52:46;61.77;57.32;63.17;;
72858;Laerm;62742;52.136;4.500;2023-07-22T05:55:14;62.00;58.36;63.22;;
72858;Laerm;62742;52.136;4.500;2023-07-22T05:57:41;61.85;60.18;63.34;;
72858;Laerm;62742;52.136;4.500;2023-07-22T06:00:08;60.76;53.02;63.22;;
72858;Laerm;62742;52.136;4.500;2023-07-22T06:02:35;60.36;57.43;61.95;;
72858;Laerm;62742;52.136;4.500;2023-07-22T06:05:01;59.94;56.47;61.84;;
72858;Laerm;62742;52.136;4.500;2023-07-22T06:07:28;59.73;52.81;61.71;;
72858;Laerm;62742;52.136;4.500;2023-07-22T06:09:55;59.96;56.90;62.07;;
72858;Laerm;62742;52.136;4.500;2023-07-22T06:12:21;59.71;56.32;62.26;;
72858;Laerm;62742;52.136;4.500;2023-07-22T06:14:47;59.87;54.23;62.50;;
72858;Laerm;62742;52.136;4.500;2023-07-22T06:17:14;60.21;56.32;61.75;;
72858;Laerm;62742;52.136;4.500;2023-07-22T06:19:40;59.72;57.22;61.73;;
72858;Laerm;62742;52.136;4.500;2023-07-22T06:22:07;59.47;56.25;61.71;;
72858;Laerm;62742;52.136;4.500;2023-07-22T06:24:33;59.95;56.28;62.56;;
72858;Laerm;62742;52.136;4.500;2023-07-22T06:27:00;59.52;56.30;62.22;;
72858;Laerm;62742;52.136;4.500;2023-07-22T06:29:26;59.55;56.29;62.12;;
72858;Laerm;62742;52.136;4.500;2023-07-22T06:31:53;57.18;51.34;61.17;;
72858;Laerm;62742;52.136;4.500;2023-07-22T06:34:19;56.80;53.40;60.11;;
72858;Laerm;62742;52.136;4.500;2023-07-22T06:36:45;56.92;53.30;60.10;;
72858;Laerm;62742;52.136;4.500;2023-07-22T06:39:12;55.86;51.49;58.59;;
72858;Laerm;62742;52.136;4.500;2023-07-22T06:41:39;59.93;54.12;63.25;;
72858;Laerm;62742;52.136;4.500;2023-07-22T06:44:05;60.57;54.25;63.19;;
72858;Laerm;62742;52.136;4.500;2023-07-22T06:46:32;56.93;53.51;59.85;;
72858;Laerm;62742;52.136;4.500;2023-07-22T06:48:59;57.03;51.40;59.74;;
72858;Laerm;62742;52.136;4.500;2023-07-22T06:51:26;56.82;53.67;59.89;;
72858;Laerm;62742;52.136;4.500;2023-07-22T06:53:52;56.33;52.00;59.63;;
72858;Laerm;62742;52.136;4.500;2023-07-22T06:56:19;59.54;55.15;62.55;;
72858;Laerm;62742;52.136;4.500;2023-07-22T06:58:45;59.98;57.19;62.73;;
72858;Laerm;62742;52.136;4.500;2023-07-22T07:01:13;60.39;57.32;62.68;;
72858;Laerm;62742;52.136;4.500;2023-07-22T07:03:39;60.22;56.15;62.46;;
72858;Laerm;62742;52.136;4.500;2023-07-22T07:06:06;60.41;53.68;62.87;;
72858;Laerm;62742;52.136;4.500;2023-07-22T07:08:32;60.42;57.58;62.64;;
72858;Laerm;62742;52.136;4.500;2023-07-22T07:10:59;59.25;56.34;61.56;;
72858;Laerm;62742;52.136;4.500;2023-07-22T07:13:27;58.85;55.25;61.19;;
72858;Laerm;62742;52.136;4.500;2023-07-22T07:15:54;58.35;52.72;61.55;;
72858;Laerm;62742;52.136;4.500;2023-07-22T07:18:21;58.87;54.76;61.61;;
72858;Laerm;62742;52.136;4.500;2023-07-22T07:20:48;58.85;53.80;62.35;;
72858;Laerm;62742;52.136;4.500;2023-07-22T07:23:17;58.57;54.19;62.10;;
72858;Laerm;62742;52.136;4.500;2023-07-22T07:25:43;58.03;53.48;60.87;;
72858;Laerm;62742;52.136;4.500;2023-07-22T07:28:10;57.76;52.59;61.48;;
72858;Laerm;62742;52.136;4.500;2023-07-22T07:30:39;57.50;52.61;61.47;;
72858;Laerm;62742;52.136;4.500;2023-07-22T07:33:06;57.94;53.27;62.02;;
72858;Laerm;62742;52.136;4.500;2023-07-22T07:35:32;56.38;50.52;59.81;;
72858;Laerm;62742;52.136;4.500;2023-07-22T07:37:58;57.59;52.59;60.52;;
72858;Laerm;62742;52.136;4.500;2023-07-22T07:40:25;57.91;51.48;61.27;;
72858;Laerm;62742;52.136;4.500;2023-07-22T07:42:52;58.15;53.69;61.29;;
72858;Laerm;62742;52.136;4.500;2023-07-22T07:45:19;58.14;52.36;61.09;;
72858;Laerm;62742;52.136;4.500;2023-07-22T07:47:46;57.72;51.04;61.47;;
72858;Laerm;62742;52.136;4.500;2023-07-22T07:50:13;55.82;49.82;59.61;;
72858;Laerm;62742;52.136;4.500;2023-07-22T07:52:39;55.81;50.79;59.41;;
72858;Laerm;62742;52.136;4.500;2023-07-22T07:55:06;54.81;50.27;58.39;;
72858;Laerm;62742;52.136;4.500;2023-07-22T07:57:34;54.02;49.89;57.35;;
72858;Laerm;62742;52.136;4.500;2023-07-22T08:00:00;53.78;49.34;57.51;;
72858;Laerm;62742;52.136;4.500;2023-07-22T08:02:27;53.63;49.42;57.26;;
72858;Laerm;62742;52.136;4.500;2023-07-22T08:04:53;53.67;50.14;57.35;;
72858;Laerm;62742;52.136;4.500;2023-07-22T08:07:20;53.70;49.71;57.38;;
72858;Laerm;62742;52.136;4.500;2023-07-22T08:09:47;53.95;50.20;57.93;;
72858;Laerm;62742;52.136;4.500;2023-07-22T08:12:18;53.41;49.97;56.89;;
72858;Laerm;62742;52.136;4.500;2023-07-22T08:14:45;53.28;49.73;56.86;;
72858;Laerm;62742;52.136;4.500;2023-07-22T08:17:11;53.32;49.52;56.55;;
72858;Laerm;62742;52.136;4.500;2023-07-22T08:19:38;53.23;49.93;56.97;;
72858;Laerm;62742;52.136;4.500;2023-07-22T08:22:05;53.13;49.84;56.02;;
72858;Laerm;62742;52.136;4.500;2023-07-22T08:24:32;52.98;49.64;55.96;;
72858;Laerm;62742;52.136;4.500;2023-07-22T08:26:58;52.83;49.82;56.19;;
72858;Laerm;62742;52.136;4.500;2023-07-22T08:29:25;53.22;49.65;56.85;;
72858;Laerm;62742;52.136;4.500;2023-07-22T08:31:51;53.24;49.95;57.63;;
72858;Laerm;62742;52.136;4.500;2023-07-22T08:34:18;53.28;49.64;56.53;;
72858;Laerm;62742;52.136;4.500;2023-07-22T08:36:44;53.49;49.90;56.86;;
72858;Laerm;62742;52.136;4.500;2023-07-22T08:39:11;53.55;50.16;57.18;;
72858;Laerm;62742;52.136;4.500;2023-07-22T08:41:38;54.30;50.03;57.65;;
72858;Laerm;62742;52.136;4.500;2023-07-22T08:44:09;54.60;50.61;57.75;;
72858;Laerm;62742;52.136;4.500;2023-07-22T08:46:39;54.56;50.70;66.13;;
72858;Laerm;62742;52.136;4.500;2023-07-22T08:49:08;54.61;50.91;57.69;;
72858;Laerm;62742;52.136;4.500;2023-07-22T08:51:35;54.50;50.60;57.75;;
72858;Laerm;62742;52.136;4.500;2023-07-22T08:54:04;53.67;50.06;56.82;;
72858;Laerm;62742;52.136;4.500;2023-07-22T08:56:31;53.74;50.39;57.86;;
72858;Laerm;62742;52.136;4.500;2023-07-22T08:59:00;54.21;50.33;57.12;;
72858;Laerm;62742;52.136;4.500;2023-07-22T09:01:27;53.56;50.05;56.69;;
72858;Laerm;62742;52.136;4.500;2023-07-22T09:03:55;54.40;51.23;57.41;;
72858;Laerm;62742;52.136;4.500;2023-07-22T09:06:23;54.43;50.76;57.54;;
72858;Laerm;62742;52.136;4.500;2023-07-22T09:08:50;53.98;49.75;57.69;;
72858;Laerm;62742;52.136;4.500;2023-07-22T09:11:19;54.23;50.58;57.35;;
72858;Laerm;62742;52.136;4.500;2023-07-22T09:13:46;54.42;50.82;57.91;;
72858;Laerm;62742;52.136;4.500;2023-07-22T09:16:15;54.01;50.55;57.68;;
72858;Laerm;62742;52.136;4.500;2023-07-22T09:18:42;54.33;50.00;58.11;;
72858;Laerm;62742;52.136;4.500;2023-07-22T09:21:08;54.27;50.43;57.40;;
72858;Laerm;62742;52.136;4.500;2023-07-22T09:23:36;54.51;51.25;58.77;;
72858;Laerm;62742;52.136;4.500;2023-07-22T09:26:15;54.01;50.56;57.16;;
72858;Laerm;62742;52.136;4.500;2023-07-22T09:28:56;54.15;50.36;57.60;;
72858;Laerm;62742;52.136;4.500;2023-07-22T09:31:25;53.97;50.96;57.29;;
72858;Laerm;62742;52.136;4.500;2023-07-22T09:33:54;53.84;50.77;56.88;;
72858;Laerm;62742;52.136;4.500;2023-07-22T09:36:20;54.47;50.52;57.40;;
72858;Laerm;62742;52.136;4.500;2023-07-22T09:39:02;54.50;51.18;58.19;;
72858;Laerm;62742;52.136;4.500;2023-07-22T09:41:29;54.38;50.55;58.02;;
72858;Laerm;62742;52.136;4.500;2023-07-22T09:44:03;54.26;50.75;58.01;;
72858;Laerm;62742;52.136;4.500;2023-07-22T09:46:32;54.44;50.92;57.87;;
72858;Laerm;62742;52.136;4.500;2023-07-22T09:49:06;54.21;49.30;57.40;;
72858;Laerm;62742;52.136;4.500;2023-07-22T09:51:40;54.20;50.41;58.75;;
72858;Laerm;62742;52.136;4.500;2023-07-22T09:54:07;54.21;50.27;57.33;;
72858;Laerm;62742;52.136;4.500;2023-07-22T09:56:49;54.50;51.34;59.53;;
72858;Laerm;62742;52.136;4.500;2023-07-22T09:59:18;53.82;50.14;57.30;;
72858;Laerm;62742;52.136;4.500;2023-07-22T10:01:46;53.76;49.96;56.78;;
72858;Laerm;62742;52.136;4.500;2023-07-22T10:04:16;53.77;50.21;56.57;;
72858;Laerm;62742;52.136;4.500;2023-07-22T10:06:44;54.19;50.83;57.00;;
72858;Laerm;62742;52.136;4.500;2023-07-22T10:09:13;53.94;51.07;56.98;;
72858;Laerm;62742;52.136;4.500;2023-07-22T10:11:48;53.03;49.09;56.57;;
72858;Laerm;62742;52.136;4.500;2023-07-22T10:14:15;53.22;49.70;56.30;;
72858;Laerm;62742;52.136;4.500;2023-07-22T10:16:42;53.99;50.84;57.03;;
72858;Laerm;62742;52.136;4.500;2023-07-22T10:19:09;54.34;50.54;58.11;;
72858;Laerm;62742;52.136;4.500;2023-07-22T10:21:38;54.41;50.51;57.71;;
72858;Laerm;62742;52.136;4.500;2023-07-22T10:24:07;54.47;50.65;57.93;;
72858;Laerm;62742;52.136;4.500;2023-07-22T10:26:34;54.39;50.44;58.37;;
72858;Laerm;62742;52.136;4.500;2023-07-22T10:29:01;54.26;51.05;57.68;;
72858;Laerm;62742;52.136;4.500;2023-07-22T10:31:31;54.11;50.88;57.04;;
72858;Laerm;62742;52.136;4.500;2023-07-22T10:33:58;53.77;49.46;57.69;;
72858;Laerm;62742;52.136;4.500;2023-07-22T10:36:29;53.40;49.64;57.07;;
72858;Laerm;62742;52.136;4.500;2023-07-22T10:38:59;53.32;50.21;56.14;;
72858;Laerm;62742;52.136;4.500;2023-07-22T10:41:28;53.98;50.32;57.11;;
72858;Laerm;62742;52.136;4.500;2023-07-22T10:43:59;53.79;50.01;57.20;;
72858;Laerm;62742;52.136;4.500;2023-07-22T10:46:36;53.83;50.36;57.78;;
72858;Laerm;62742;52.136;4.500;2023-07-22T10:49:13;55.67;50.13;60.01;;
72858;Laerm;62742;52.136;4.500;2023-07-22T10:51:40;57.40;52.64;67.97;;
72858;Laerm;62742;52.136;4.500;2023-07-22T10:54:14;63.29;55.46;71.58;;
72858;Laerm;62742;52.136;4.500;2023-07-22T10:56:44;59.48;52.26;69.90;;
72858;Laerm;62742;52.136;4.500;2023-07-22T10:59:11;57.33;52.00;64.32;;
72858;Laerm;62742;52.136;4.500;2023-07-22T11:01:40;56.78;53.23;60.72;;
72858;Laerm;62742;52.136;4.500;2023-07-22T11:04:25;57.55;53.11;65.05;;
72858;Laerm;62742;52.136;4.500;2023-07-22T11:07:07;58.79;52.24;65.32;;
72858;Laerm;62742;52.136;4.500;2023-07-22T11:09:35;59.41;53.56;64.78;;
72858;Laerm;62742;52.136;4.500;2023-07-22T11:12:14;59.62;54.07;68.13;;
72858;Laerm;62742;52.136;4.500;2023-07-22T11:14:51;59.59;51.61;66.99;;
72858;Laerm;62742;52.136;4.500;2023-07-22T11:17:29;59.21;52.49;66.76;;
72858;Laerm;62742;52.136;4.500;2023-07-22T11:19:59;59.15;52.57;65.21;;
72858;Laerm;62742;52.136;4.500;2023-07-22T11:22:26;62.70;52.29;69.90;;
72858;Laerm;62742;52.136;4.500;2023-07-22T11:24:56;63.44;57.39;69.76;;
72858;Laerm;62742;52.136;4.500;2023-07-22T11:27:25;62.31;56.59;69.06;;
72858;Laerm;62742;52.136;4.500;2023-07-22T11:29:53;62.54;57.62;68.79;;
72858;Laerm;62742;52.136;4.500;2023-07-22T11:32:20;63.51;57.32;70.00;;
72858;Laerm;62742;52.136;4.500;2023-07-22T11:34:53;62.93;56.48;70.52;;
72858;Laerm;62742;52.136;4.500;2023-07-22T11:37:20;63.97;57.88;70.78;;
72858;Laerm;62742;52.136;4.500;2023-07-22T11:39:46;63.89;53.74;70.58;;
72858;Laerm;62742;52.136;4.500;2023-07-22T11:42:13;64.68;58.07;70.62;;
72858;Laerm;62742;52.136;4.500;2023-07-22T11:44:39;62.20;52.98;69.96;;
72858;Laerm;62742;52.136;4.500;2023-07-22T11:47:07;60.50;53.16;68.30;;
72858;Laerm;62742;52.136;4.500;2023-07-22T11:49:39;59.98;53.44;65.84;;
72858;Laerm;62742;52.136;4.500;2023-07-22T11:52:15;59.70;53.10;66.23;;
72858;Laerm;62742;52.136;4.500;2023-07-22T11:54:46;57.34;51.76;63.56;;
72858;Laerm;62742;52.136;4.500;2023-07-22T11:57:20;56.38;52.77;62.03;;
72858;Laerm;62742;52.136;4.500;2023-07-22T11:59:55;56.85;52.79;63.18;;
72858;Laerm;62742;52.136;4.500;2023-07-22T12:02:27;58.19;52.78;64.71;;
72858;Laerm;62742;52.136;4.500;2023-07-22T12:05:04;56.35;52.68;61.70;;
72858;Laerm;62742;52.136;4.500;2023-07-22T12:07:38;57.46;51.74;65.07;;
72858;Laerm;62742;52.136;4.500;2023-07-22T12:10:07;57.30;52.39;65.58;;
72858;Laerm;62742;52.136;4.500;2023-07-22T12:12:40;57.01;52.83;64.42;;
72858;Laerm;62742;52.136;4.500;2023-07-22T12:15:17;56.81;52.55;65.08;;
72858;Laerm;62742;52.136;4.500;2023-07-22T12:17:48;56.63;52.76;63.08;;
72858;Laerm;62742;52.136;4.500;2023-07-22T12:20:16;57.81;53.22;64.26;;
72858;Laerm;62742;52.136;4.500;2023-07-22T12:22:43;57.56;53.15;63.17;;
72858;Laerm;62742;52.136;4.500;2023-07-22T12:25:10;57.03;52.58;64.83;;
72858;Laerm;62742;52.136;4.500;2023-07-22T12:27:37;55.67;52.67;61.15;;
72858;Laerm;62742;52.136;4.500;2023-07-22T12:30:05;57.67;52.91;63.94;;
72858;Laerm;62742;52.136;4.500;2023-07-22T12:32:34;57.82;53.33;65.22;;
72858;Laerm;62742;52.136;4.500;2023-07-22T12:35:00;57.91;52.10;63.15;;
72858;Laerm;62742;52.136;4.500;2023-07-22T12:37:27;58.20;53.25;64.82;;
72858;Laerm;62742;52.136;4.500;2023-07-22T12:39:54;59.53;51.90;67.16;;
72858;Laerm;62742;52.136;4.500;2023-07-22T12:42:21;58.92;52.24;67.16;;
72858;Laerm;62742;52.136;4.500;2023-07-22T12:44:49;56.57;51.77;63.74;;
72858;Laerm;62742;52.136;4.500;2023-07-22T12:47:15;55.99;52.19;60.13;;
72858;Laerm;62742;52.136;4.500;2023-07-22T12:49:42;54.30;50.46;58.63;;
72858;Laerm;62742;52.136;4.500;2023-07-22T12:52:08;53.96;51.10;57.44;;
72858;Laerm;62742;52.136;4.500;2023-07-22T12:54:36;53.67;50.82;56.74;;
72858;Laerm;62742;52.136;4.500;2023-07-22T12:57:03;53.63;50.87;56.82;;
72858;Laerm;62742;52.136;4.500;2023-07-22T12:59:30;53.67;50.91;56.18;;
72858;Laerm;62742;52.136;4.500;2023-07-22T13:01:57;53.77;51.06;57.41;;
72858;Laerm;62742;52.136;4.500;2023-07-22T13:04:24;54.17;51.19;59.14;;
72858;Laerm;62742;52.136;4.500;2023-07-22T13:06:51;53.98;51.17;57.71;;
72858;Laerm;62742;52.136;4.500;2023-07-22T13:09:19;54.06;51.36;58.70;;
72858;Laerm;62742;52.136;4.500;2023-07-22T13:11:46;53.82;50.47;57.41;;
72858;Laerm;62742;52.136;4.500;2023-07-22T13:14:13;53.62;50.78;56.12;;
72858;Laerm;62742;52.136;4.500;2023-07-22T13:16:40;53.44;50.35;57.64;;
72858;Laerm;62742;52.136;4.500;2023-07-22T13:19:06;53.27;50.06;55.97;;
72858;Laerm;62742;52.136;4.500;2023-07-22T13:21:33;54.58;50.73;60.01;;
72858;Laerm;62742;52.136;4.500;2023-07-22T13:23:59;55.13;51.45;60.08;;
72858;Laerm;62742;52.136;4.500;2023-07-22T13:26:26;55.60;50.13;59.92;;
72858;Laerm;62742;52.136;4.500;2023-07-22T13:28:52;54.11;50.92;58.33;;
72858;Laerm;62742;52.136;4.500;2023-07-22T13:31:20;53.47;50.23;57.22;;
72858;Laerm;62742;52.136;4.500;2023-07-22T13:33:49;54.37;51.12;58.01;;
72858;Laerm;62742;52.136;4.500;2023-07-22T13:36:15;54.01;50.89;57.31;;
72858;Laerm;62742;52.136;4.500;2023-07-22T13:38:42;53.82;50.84;57.15;;
72858;Laerm;62742;52.136;4.500;2023-07-22T13:41:08;53.92;51.34;56.63;;
72858;Laerm;62742;52.136;4.500;2023-07-22T13:43:34;54.08;50.97;56.87;;
72858;Laerm;62742;52.136;4.500;2023-07-22T13:46:01;53.77;50.67;56.41;;